Time;durP1;ratioP1;P1;durP2;ratioP2;P2;SDS_P1;SDS_P2;PMS_P1;PMS_P2;Temp;Humidity;BMP_temperature;BMP_pressure;BME280_temperature;BME280_humidity;BME280_pressure;Samples;Min_cycle;Max_cycle;Signal;HPM_P1;HPM_P2
2023/08/28 00:00:43;;;;;;;2.55;1.90;;;15.10;99.90;;;;;;5030926;28;20224;-88
2023/08/28 00:03:11;;;;;;;2.85;2.00;;;15.10;99.90;;;;;;5020397;28;20203;-88
2023/08/28 00:05:37;;;;;;;4.57;2.05;;;15.10;99.90;;;;;;5017531;28;20210;-88
2023/08/28 00:08:05;;;;;;;7.55;2.10;;;15.00;99.90;;;;;;5031763;28;20217;-88
2023/08/28 00:10:32;;;;;;;2.30;2.10;;;15.00;99.90;;;;;;5021814;28;20745;-88
2023/08/28 00:12:59;;;;;;;3.05;1.80;;;15.00;99.90;;;;;;5024372;28;20202;-88
2023/08/28 00:15:26;;;;;;;2.13;1.95;;;15.10;99.90;;;;;;4995459;28;20203;-88
2023/08/28 00:17:55;;;;;;;2.78;2.28;;;15.10;99.90;;;;;;5009483;28;20247;-88
2023/08/28 00:20:22;;;;;;;3.38;2.35;;;15.10;99.90;;;;;;4997157;28;20622;-88
2023/08/28 00:22:49;;;;;;;5.68;2.35;;;15.10;99.90;;;;;;4987626;28;20206;-89
2023/08/28 00:25:16;;;;;;;2.70;2.45;;;15.10;99.90;;;;;;4998583;28;20209;-88
2023/08/28 00:27:43;;;;;;;3.08;2.28;;;15.10;99.90;;;;;;5016917;28;20205;-88
2023/08/28 00:30:10;;;;;;;4.18;2.17;;;15.10;99.90;;;;;;5012972;28;20226;-88
2023/08/28 00:32:38;;;;;;;4.47;2.72;;;15.10;99.90;;;;;;5017050;28;20233;-88
2023/08/28 00:35:08;;;;;;;2.83;2.53;;;15.10;99.90;;;;;;4989589;28;20213;-88
2023/08/28 00:37:35;;;;;;;3.15;2.40;;;15.20;99.90;;;;;;5006789;28;20198;-88
2023/08/28 00:40:03;;;;;;;2.33;2.08;;;15.20;99.90;;;;;;5028968;28;20221;-88
2023/08/28 00:42:32;;;;;;;3.28;2.00;;;15.20;99.90;;;;;;5000308;28;20203;-88
2023/08/28 00:44:59;;;;;;;3.08;1.92;;;15.00;99.90;;;;;;5023031;28;20198;-89
2023/08/28 00:47:26;;;;;;;2.78;2.10;;;14.90;99.90;;;;;;5023780;28;20210;-88
2023/08/28 00:49:53;;;;;;;2.22;2.03;;;14.90;99.90;;;;;;5027580;28;20206;-88
2023/08/28 00:55:03;;;;;;;2.03;1.83;;;14.90;99.90;;;;;;5007003;28;20210;-89
2023/08/28 00:57:31;;;;;;;2.60;1.92;;;15.00;99.90;;;;;;5002795;28;20195;-89
2023/08/28 00:59:58;;;;;;;3.20;2.17;;;14.90;99.90;;;;;;5018716;28;20198;-89
2023/08/28 01:02:26;;;;;;;3.30;2.03;;;14.80;99.90;;;;;;4998929;28;20668;-89
2023/08/28 01:04:53;;;;;;;3.80;2.10;;;14.80;99.90;;;;;;5020709;28;20195;-88
2023/08/28 01:10:13;;;;;;;2.40;2.20;;;14.70;99.90;;;;;;5028015;28;20233;-89
2023/08/28 01:12:47;;;;;;;2.60;2.10;;;14.70;99.90;;;;;;5023074;28;20310;-88
2023/08/28 01:15:18;;;;;;;3.60;2.05;;;14.60;99.90;;;;;;4999345;28;20666;-89
2023/08/28 01:17:47;;;;;;;2.20;2.00;;;14.60;99.90;;;;;;5032438;28;20198;-89
2023/08/28 01:20:16;;;;;;;3.83;2.10;;;14.60;99.90;;;;;;5024248;28;20621;-89
2023/08/28 01:23:06;;;;;;;3.10;2.30;;;14.60;99.90;;;;;;5027670;28;20261;-88
2023/08/28 01:25:36;;;;;;;2.97;2.20;;;14.60;99.90;;;;;;5029539;28;20210;-88
2023/08/28 01:28:05;;;;;;;3.53;2.45;;;14.60;99.90;;;;;;5029056;28;20234;-88
2023/08/28 01:30:32;;;;;;;4.22;2.38;;;14.60;99.90;;;;;;5033714;28;20207;-88
2023/08/28 01:32:59;;;;;;;3.75;2.30;;;14.60;99.90;;;;;;5018093;28;20223;-89
2023/08/28 01:35:27;;;;;;;3.50;2.33;;;14.60;99.90;;;;;;5030349;28;20195;-88
2023/08/28 01:38:20;;;;;;;2.80;2.22;;;14.50;99.90;;;;;;5021602;28;20214;-87
2023/08/28 01:40:53;;;;;;;3.30;2.30;;;14.50;99.90;;;;;;5021033;28;20194;-87
2023/08/28 01:43:23;;;;;;;3.45;2.90;;;14.60;99.90;;;;;;5019155;28;20208;-87
2023/08/28 01:45:50;;;;;;;2.80;2.50;;;14.50;99.90;;;;;;5026669;28;20198;-87
2023/08/28 01:48:18;;;;;;;6.43;2.70;;;14.60;99.90;;;;;;5029705;28;20627;-87
2023/08/28 01:50:45;;;;;;;4.03;2.42;;;14.50;99.90;;;;;;5018659;28;20292;-87
2023/08/28 01:53:12;;;;;;;2.80;2.30;;;14.60;99.90;;;;;;5036489;28;20222;-86
2023/08/28 01:56:20;;;;;;;4.55;2.50;;;14.60;99.90;;;;;;5017386;28;20206;-86
2023/08/28 01:58:52;;;;;;;2.72;2.13;;;14.70;99.90;;;;;;5033255;28;20198;-86
2023/08/28 02:01:20;;;;;;;2.45;2.25;;;14.60;99.90;;;;;;5034422;28;20677;-85
2023/08/28 02:03:47;;;;;;;3.38;2.60;;;14.60;99.90;;;;;;5038331;28;20275;-86
2023/08/28 02:06:15;;;;;;;3.78;2.80;;;14.60;99.90;;;;;;5031669;28;20773;-87
2023/08/28 02:08:42;;;;;;;4.40;2.90;;;14.60;99.90;;;;;;5040576;28;20203;-87
2023/08/28 02:11:09;;;;;;;3.63;2.70;;;14.60;99.90;;;;;;5027144;28;20861;-87
2023/08/28 02:13:36;;;;;;;3.10;2.80;;;14.50;99.90;;;;;;5033852;28;20216;-87
2023/08/28 02:16:05;;;;;;;5.82;3.05;;;14.50;99.90;;;;;;4993646;28;20708;-87
2023/08/28 02:18:32;;;;;;;4.63;2.88;;;14.60;99.90;;;;;;5020106;28;20203;-87
2023/08/28 02:20:59;;;;;;;3.90;2.95;;;14.60;99.90;;;;;;5018483;28;20210;-86
2023/08/28 02:23:26;;;;;;;3.05;2.75;;;14.50;99.90;;;;;;5001412;28;20210;-87
2023/08/28 02:25:54;;;;;;;3.05;2.72;;;14.60;99.90;;;;;;5027788;28;20203;-86
2023/08/28 02:28:21;;;;;;;4.18;2.85;;;14.60;99.90;;;;;;5033991;28;20199;-87
2023/08/28 02:30:48;;;;;;;3.05;2.30;;;14.70;99.90;;;;;;5016634;28;20199;-87
2023/08/28 02:33:17;;;;;;;3.97;2.72;;;14.80;99.90;;;;;;5017164;28;20229;-87
2023/08/28 02:35:43;;;;;;;3.22;2.50;;;14.80;99.90;;;;;;5020244;28;20617;-87
2023/08/28 02:38:10;;;;;;;3.63;2.97;;;14.80;99.90;;;;;;5031462;28;20300;-87
2023/08/28 02:40:37;;;;;;;2.92;2.55;;;14.60;99.90;;;;;;5016697;28;20206;-87
2023/08/28 02:43:06;;;;;;;7.07;2.88;;;14.70;99.90;;;;;;5016816;28;20211;-87
2023/08/28 02:45:35;;;;;;;3.17;2.88;;;14.60;99.90;;;;;;5034737;28;20203;-86
2023/08/28 02:48:03;;;;;;;4.15;2.60;;;14.60;99.90;;;;;;5029647;28;20258;-86
2023/08/28 02:50:31;;;;;;;6.15;3.15;;;14.60;99.90;;;;;;5023876;28;20219;-87
2023/08/28 02:52:58;;;;;;;3.72;3.08;;;14.60;99.90;;;;;;5033390;28;20218;-86
2023/08/28 02:55:25;;;;;;;4.22;2.90;;;14.60;99.90;;;;;;5008454;28;20205;-87
2023/08/28 02:57:52;;;;;;;5.43;2.88;;;14.60;99.90;;;;;;5022362;28;20205;-87
2023/08/28 03:00:19;;;;;;;3.15;2.42;;;14.50;99.90;;;;;;4996017;28;20252;-87
2023/08/28 03:02:47;;;;;;;4.00;2.80;;;14.40;99.90;;;;;;5026547;28;20208;-87
2023/08/28 03:05:14;;;;;;;2.83;2.50;;;14.50;99.90;;;;;;5034193;28;20215;-86
2023/08/28 03:07:42;;;;;;;2.72;2.47;;;14.40;99.90;;;;;;5015095;28;20678;-87
2023/08/28 03:10:10;;;;;;;2.60;2.40;;;14.30;99.90;;;;;;4997150;28;20199;-87
2023/08/28 03:12:37;;;;;;;4.63;2.70;;;14.30;99.90;;;;;;5000769;28;20266;-86
2023/08/28 03:15:05;;;;;;;4.75;2.45;;;14.30;99.90;;;;;;5031119;28;20206;-86
2023/08/28 03:17:32;;;;;;;3.58;2.88;;;14.30;99.90;;;;;;5007853;28;20203;-86
2023/08/28 03:19:59;;;;;;;2.33;2.13;;;14.30;99.90;;;;;;5020110;28;20194;-86
2023/08/28 03:22:26;;;;;;;3.25;2.53;;;14.30;99.90;;;;;;5034448;28;20202;-87
2023/08/28 03:24:54;;;;;;;4.40;2.40;;;14.30;99.90;;;;;;5015236;28;20207;-86
2023/08/28 03:27:21;;;;;;;2.92;2.47;;;14.30;99.90;;;;;;5032425;28;20202;-87
2023/08/28 03:29:48;;;;;;;3.05;2.20;;;14.30;99.90;;;;;;5025225;28;20203;-86
2023/08/28 03:32:15;;;;;;;4.57;2.65;;;14.30;99.90;;;;;;5019869;28;20226;-86
2023/08/28 03:34:42;;;;;;;5.07;2.45;;;14.30;99.90;;;;;;5001392;28;20199;-87
2023/08/28 03:37:09;;;;;;;4.15;2.60;;;14.20;99.90;;;;;;5026215;28;20573;-86
2023/08/28 03:39:36;;;;;;;2.78;2.50;;;14.20;99.90;;;;;;5016483;28;20211;-86
2023/08/28 03:42:04;;;;;;;3.65;2.70;;;14.20;99.90;;;;;;5016818;28;20203;-86
2023/08/28 03:44:31;;;;;;;6.85;2.80;;;14.20;99.90;;;;;;4998761;28;20549;-87
2023/08/28 03:46:58;;;;;;;5.32;2.60;;;14.10;99.90;;;;;;5019611;28;20206;-86
2023/08/28 03:49:27;;;;;;;3.03;2.50;;;14.20;99.90;;;;;;5015076;28;20195;-86
2023/08/28 03:51:54;;;;;;;2.88;2.63;;;14.10;99.90;;;;;;5008326;28;20223;-86
2023/08/28 03:54:21;;;;;;;4.47;2.80;;;14.10;99.90;;;;;;5012746;28;20545;-87
2023/08/28 03:56:48;;;;;;;4.75;2.90;;;14.10;99.90;;;;;;5004626;28;20199;-86
2023/08/28 03:59:17;;;;;;;5.75;2.95;;;14.10;99.90;;;;;;4984186;28;20200;-86
2023/08/28 04:01:44;;;;;;;4.22;2.95;;;14.00;99.90;;;;;;4992668;28;20207;-86
2023/08/28 04:04:12;;;;;;;7.22;3.30;;;14.00;99.90;;;;;;5033304;28;20667;-86
2023/08/28 04:06:38;;;;;;;4.57;3.47;;;13.90;99.90;;;;;;5019357;28;20206;-87
2023/08/28 04:09:05;;;;;;;4.88;2.97;;;13.90;99.90;;;;;;5013226;28;20203;-87
2023/08/28 04:11:32;;;;;;;5.35;3.33;;;13.80;99.90;;;;;;5003636;28;20199;-88
2023/08/28 04:13:59;;;;;;;4.72;3.20;;;14.00;99.90;;;;;;5017152;28;20219;-88
2023/08/28 04:16:28;;;;;;;6.93;3.33;;;13.90;99.90;;;;;;5020830;28;20207;-87
2023/08/28 04:18:54;;;;;;;5.60;3.63;;;13.90;99.90;;;;;;5030841;28;20194;-87
2023/08/28 04:21:21;;;;;;;5.63;3.38;;;13.80;99.90;;;;;;5005043;28;20290;-87
2023/08/28 04:23:48;;;;;;;5.50;3.60;;;13.80;99.90;;;;;;5005102;28;20651;-87
2023/08/28 04:26:15;;;;;;;7.53;4.00;;;13.80;99.90;;;;;;5001881;28;20313;-87
2023/08/28 04:28:42;;;;;;;4.88;3.67;;;13.70;99.90;;;;;;5030862;28;20199;-87
2023/08/28 04:31:09;;;;;;;5.90;3.60;;;13.70;99.90;;;;;;5030560;28;20210;-87
2023/08/28 04:33:38;;;;;;;4.03;3.70;;;13.90;99.90;;;;;;5028305;28;20261;-88
2023/08/28 04:36:05;;;;;;;7.18;3.80;;;14.00;99.90;;;;;;5002685;28;20616;-87
2023/08/28 04:38:32;;;;;;;3.85;3.22;;;13.90;99.90;;;;;;5027886;28;20194;-87
2023/08/28 04:40:59;;;;;;;4.50;3.78;;;13.80;99.90;;;;;;5025579;28;20218;-87
2023/08/28 04:43:26;;;;;;;5.05;3.90;;;13.80;99.90;;;;;;5016079;28;20198;-87
2023/08/28 04:45:53;;;;;;;4.47;4.07;;;13.80;99.90;;;;;;5028340;28;20190;-87
2023/08/28 04:48:20;;;;;;;5.25;4.65;;;13.70;99.90;;;;;;5002866;28;20186;-87
2023/08/28 04:50:48;;;;;;;5.55;4.97;;;13.70;99.90;;;;;;5007948;28;20225;-87
2023/08/28 04:53:15;;;;;;;8.98;4.70;;;13.70;99.90;;;;;;5017836;28;20590;-87
2023/08/28 04:55:42;;;;;;;6.47;4.88;;;13.80;99.90;;;;;;5002767;28;20197;-87
2023/08/28 04:58:09;;;;;;;6.55;5.20;;;13.70;99.90;;;;;;5008616;28;20214;-88
2023/08/28 05:00:36;;;;;;;8.68;4.93;;;13.70;99.90;;;;;;5007745;28;20218;-88
2023/08/28 05:03:03;;;;;;;7.75;4.72;;;13.90;99.90;;;;;;5027317;28;20203;-87
2023/08/28 05:05:30;;;;;;;8.40;4.65;;;13.90;99.90;;;;;;5010014;28;20214;-89
2023/08/28 05:07:59;;;;;;;4.43;3.90;;;13.80;99.90;;;;;;5013678;28;20201;-89
2023/08/28 05:10:26;;;;;;;4.63;3.33;;;13.80;99.90;;;;;;5004432;28;20581;-89
2023/08/28 05:12:53;;;;;;;3.30;2.90;;;13.70;99.90;;;;;;5005253;28;20231;-86
2023/08/28 05:15:20;;;;;;;6.15;3.53;;;13.60;99.90;;;;;;5031512;28;20201;-86
2023/08/28 05:17:47;;;;;;;5.47;3.50;;;13.50;99.90;;;;;;4994143;28;20202;-85
2023/08/28 05:20:14;;;;;;;4.65;3.00;;;13.50;99.90;;;;;;5025053;28;20315;-84
2023/08/28 05:22:41;;;;;;;5.25;3.70;;;13.50;99.90;;;;;;5004935;28;20202;-85
2023/08/28 05:25:10;;;;;;;8.85;3.42;;;13.50;99.90;;;;;;5026535;28;20206;-85
2023/08/28 05:27:37;;;;;;;4.28;3.33;;;13.50;99.90;;;;;;5028046;28;20665;-85
2023/08/28 05:30:04;;;;;;;4.43;3.28;;;13.50;99.90;;;;;;5007515;28;20222;-86
2023/08/28 05:32:31;;;;;;;5.40;3.47;;;13.40;99.90;;;;;;5017430;28;20219;-86
2023/08/28 05:34:58;;;;;;;5.03;3.88;;;13.40;99.90;;;;;;5021292;28;20194;-85
2023/08/28 05:37:25;;;;;;;4.50;2.97;;;13.40;99.90;;;;;;5024282;28;20206;-85
2023/08/28 05:39:52;;;;;;;5.65;3.10;;;13.40;99.90;;;;;;5008648;28;20277;-85
2023/08/28 05:42:21;;;;;;;4.22;3.08;;;13.40;99.90;;;;;;5026517;28;20662;-87
2023/08/28 05:44:48;;;;;;;4.30;3.42;;;13.40;99.90;;;;;;5017396;28;20203;-85
2023/08/28 05:47:15;;;;;;;4.45;3.15;;;13.30;99.90;;;;;;5000402;28;20210;-86
2023/08/28 05:49:42;;;;;;;7.65;3.80;;;13.30;99.90;;;;;;5012458;28;20207;-85
2023/08/28 05:52:08;;;;;;;7.57;3.53;;;13.40;99.90;;;;;;5030542;28;20226;-85
2023/08/28 05:54:35;;;;;;;4.03;3.55;;;13.40;99.90;;;;;;5020182;28;20226;-86
2023/08/28 05:57:03;;;;;;;4.85;3.25;;;13.30;99.90;;;;;;5028314;28;20206;-85
2023/08/28 05:59:31;;;;;;;5.25;4.15;;;13.30;99.90;;;;;;5001036;28;20845;-86
2023/08/28 06:01:59;;;;;;;5.55;3.13;;;13.50;99.90;;;;;;5024827;28;20213;-87
2023/08/28 06:04:25;;;;;;;4.57;3.63;;;13.60;99.90;;;;;;5016862;28;20615;-87
2023/08/28 06:06:52;;;;;;;5.00;3.35;;;13.60;99.90;;;;;;5019621;28;20226;-87
2023/08/28 06:09:19;;;;;;;3.50;3.20;;;13.50;99.90;;;;;;5007942;28;20198;-87
2023/08/28 06:11:46;;;;;;;4.07;3.25;;;13.50;99.90;;;;;;5008485;28;20205;-86
2023/08/28 06:14:13;;;;;;;5.53;3.30;;;13.60;99.90;;;;;;5020442;28;20598;-86
2023/08/28 06:16:41;;;;;;;4.03;3.47;;;13.60;99.90;;;;;;5024703;28;20210;-86
2023/08/28 06:19:08;;;;;;;5.57;3.95;;;13.60;99.90;;;;;;5026167;28;20202;-86
2023/08/28 06:21:35;;;;;;;4.93;3.67;;;13.60;99.90;;;;;;5007222;28;20203;-86
2023/08/28 06:24:02;;;;;;;7.43;4.10;;;13.60;99.90;;;;;;5026372;28;20206;-86
2023/08/28 06:26:29;;;;;;;9.30;3.75;;;13.60;99.90;;;;;;5024299;28;20194;-87
2023/08/28 06:28:56;;;;;;;4.78;4.10;;;13.60;99.90;;;;;;5022784;28;20203;-87
2023/08/28 06:31:23;;;;;;;7.38;4.53;;;13.50;99.90;;;;;;5010238;28;20571;-87
2023/08/28 06:33:51;;;;;;;4.75;4.30;;;13.60;99.90;;;;;;5018513;28;20230;-87
2023/08/28 06:36:18;;;;;;;4.68;4.28;;;13.70;99.90;;;;;;5002139;28;20568;-87
2023/08/28 06:38:46;;;;;;;5.13;4.13;;;13.70;99.90;;;;;;5024481;28;20570;-87
2023/08/28 06:41:13;;;;;;;4.93;4.05;;;13.60;99.90;;;;;;5005572;28;20203;-86
2023/08/28 06:43:40;;;;;;;5.03;4.50;;;13.60;99.90;;;;;;5004602;28;20201;-87
2023/08/28 06:46:07;;;;;;;5.25;4.03;;;13.60;99.90;;;;;;4988302;28;20207;-87
2023/08/28 06:48:34;;;;;;;4.85;4.40;;;13.60;99.90;;;;;;5027727;28;20210;-87
2023/08/28 06:51:03;;;;;;;5.82;4.20;;;13.60;99.90;;;;;;5023734;28;20933;-86
2023/08/28 06:53:30;;;;;;;5.65;4.10;;;13.50;99.90;;;;;;5027959;28;20221;-87
2023/08/28 06:55:57;;;;;;;6.97;4.85;;;13.50;99.90;;;;;;4986671;28;20214;-87
2023/08/28 06:58:24;;;;;;;5.93;4.55;;;13.50;99.90;;;;;;5022112;28;20294;-87
2023/08/28 07:00:51;;;;;;;6.43;4.55;;;13.60;99.90;;;;;;4994322;28;20274;-88
2023/08/28 07:03:18;;;;;;;7.35;4.68;;;13.60;99.90;;;;;;5019486;28;21656;-90
2023/08/28 07:05:45;;;;;;;4.63;4.22;;;13.50;99.90;;;;;;5009222;28;20203;-88
2023/08/28 07:10:54;;;;;;;4.68;4.28;;;13.60;99.90;;;;;;5028298;28;20293;-88
2023/08/28 07:13:24;;;;;;;5.75;4.60;;;13.50;99.90;;;;;;5007289;28;20679;-89
2023/08/28 07:16:01;;;;;;;5.55;4.30;;;13.50;99.90;;;;;;5012387;28;20198;-88
2023/08/28 07:18:28;;;;;;;4.72;3.85;;;13.50;99.90;;;;;;5013361;28;20200;-89
2023/08/28 07:20:55;;;;;;;4.25;3.83;;;13.50;99.90;;;;;;5029900;28;20203;-88
2023/08/28 07:26:06;;;;;;;4.10;3.70;;;13.40;99.90;;;;;;5025217;28;20640;-89
2023/08/28 07:28:33;;;;;;;5.03;3.97;;;13.30;99.90;;;;;;5014998;28;20225;-89
2023/08/28 07:31:01;;;;;;;5.03;3.92;;;13.40;99.90;;;;;;5030497;28;20302;-91
2023/08/28 07:33:29;;;;;;;7.15;4.20;;;13.40;99.90;;;;;;5027623;28;20305;-90
2023/08/28 07:35:56;;;;;;;4.30;3.90;;;13.40;99.90;;;;;;5020624;28;20195;-90
2023/08/28 07:41:05;;;;;;;5.60;4.60;;;13.50;99.90;;;;;;5017699;28;20566;-90
2023/08/28 07:43:32;;;;;;;4.88;4.05;;;13.60;99.90;;;;;;5029909;28;20194;-90
2023/08/28 07:45:59;;;;;;;4.07;3.60;;;13.60;99.90;;;;;;4992612;28;20663;-90
2023/08/28 07:48:26;;;;;;;5.18;3.60;;;13.60;99.90;;;;;;5025271;28;20191;-91
2023/08/28 07:50:53;;;;;;;3.88;3.50;;;13.60;99.90;;;;;;4998859;28;20214;-91
2023/08/28 07:53:21;;;;;;;4.80;3.35;;;13.70;99.90;;;;;;5017791;28;20219;-91
2023/08/28 07:55:54;;;;;;;3.30;3.00;;;13.90;99.90;;;;;;4993332;28;20203;-91
2023/08/28 07:58:43;;;;;;;6.25;3.50;;;13.90;99.90;;;;;;5023791;28;20712;-90
2023/08/28 08:01:11;;;;;;;7.00;3.58;;;13.90;99.90;;;;;;4998419;28;20205;-91
2023/08/28 08:06:19;;;;;;;7.03;3.60;;;13.70;99.90;;;;;;5023057;28;20212;-90
2023/08/28 08:11:30;;;;;;;5.22;3.45;;;13.70;99.90;;;;;;5015853;28;20281;-91
2023/08/28 08:14:19;;;;;;;5.20;3.50;;;13.70;99.90;;;;;;5021074;28;20648;-91
2023/08/28 08:17:06;;;;;;;4.88;3.10;;;13.70;99.90;;;;;;5001999;28;20199;-90
2023/08/28 08:19:34;;;;;;;3.33;2.90;;;13.70;99.90;;;;;;5039039;28;20197;-90
2023/08/28 08:22:02;;;;;;;3.95;3.17;;;13.70;99.90;;;;;;5034518;28;20198;-89
2023/08/28 08:24:29;;;;;;;4.00;3.28;;;13.70;99.90;;;;;;5024200;28;20233;-90
2023/08/28 08:27:07;;;;;;;3.58;3.13;;;13.70;99.90;;;;;;5024354;28;20202;-89
2023/08/28 08:29:38;;;;;;;3.33;3.00;;;13.80;99.90;;;;;;5045566;28;20209;-92
2023/08/28 08:35:33;;;;;;;3.22;2.90;;;13.80;99.90;;;;;;5043876;28;20201;-92
2023/08/28 08:38:22;;;;;;;3.00;2.70;;;13.80;99.90;;;;;;4983077;28;20209;-92
2023/08/28 08:55:30;;;;;;;5.57;3.17;;;13.90;99.90;;;;;;5021038;28;20244;-92
2023/08/28 09:13:43;;;;;;;6.55;4.40;;;13.80;99.90;;;;;;4982269;28;20239;-92
2023/08/28 09:43:18;;;;;;;6.40;2.80;;;14.40;99.90;;;;;;5187420;23;20234;-95
2023/08/28 10:44:56;;;;;;;3.15;1.98;;;15.40;99.90;;;;;;5013864;28;21638;-93
2023/08/28 10:50:37;;;;;;;2.40;1.90;;;15.50;99.90;;;;;;5032371;28;20225;-92
2023/08/28 10:53:05;;;;;;;2.78;1.73;;;15.40;99.90;;;;;;5032872;28;20202;-92
2023/08/28 10:55:32;;;;;;;2.20;1.90;;;15.30;99.90;;;;;;5035306;28;20230;-92
2023/08/28 11:53:50;;;;;;;2.50;1.52;;;15.30;99.90;;;;;;4968810;28;20237;-94
2023/08/28 11:56:18;;;;;;;1.30;1.20;;;15.30;99.90;;;;;;4979818;28;20208;-94
2023/08/28 11:58:46;;;;;;;1.58;1.48;;;15.40;99.90;;;;;;4994596;28;20298;-93
2023/08/28 12:01:17;;;;;;;1.40;1.30;;;15.40;99.90;;;;;;4988134;28;20204;-94
2023/08/28 12:06:50;;;;;;;1.58;1.48;;;15.50;99.90;;;;;;4995665;28;20199;-95
2023/08/28 12:09:18;;;;;;;1.17;1.10;;;15.70;99.90;;;;;;5000789;28;20231;-95
2023/08/28 12:11:45;;;;;;;1.65;1.50;;;15.50;99.90;;;;;;4997165;28;20542;-94
2023/08/28 12:22:25;;;;;;;1.40;1.30;;;15.50;99.90;;;;;;4994794;28;20204;-96
2023/08/28 12:27:33;;;;;;;0.98;0.98;;;15.60;99.90;;;;;;4974553;28;20196;-92
2023/08/28 13:33:52;;;;;;;1.90;1.63;;;15.00;99.90;;;;;;5045337;28;20225;-94
2023/08/28 13:43:10;;;;;;;2.17;1.80;;;14.90;99.90;;;;;;5038052;28;20187;-87
2023/08/28 13:59:04;;;;;;;1.63;1.52;;;15.40;99.90;;;;;;5039101;28;20158;-91
2023/08/28 14:01:48;;;;;;;1.73;1.63;;;15.40;99.90;;;;;;5038849;28;20643;-92
2023/08/28 14:04:14;;;;;;;2.33;1.55;;;15.30;99.90;;;;;;5019302;28;20227;-92
2023/08/28 14:06:42;;;;;;;1.73;1.48;;;15.30;99.90;;;;;;5017823;28;20214;-89
2023/08/28 15:10:45;;;;;;;1.50;1.40;;;14.90;99.90;;;;;;5486213;23;20229;-90
2023/08/28 15:13:12;;;;;;;1.33;1.23;;;14.80;99.90;;;;;;5042255;28;20205;-91
2023/08/28 15:15:40;;;;;;;1.40;1.30;;;14.80;99.90;;;;;;5059976;28;20218;-91
2023/08/28 15:18:08;;;;;;;1.40;1.30;;;14.80;99.90;;;;;;5045803;28;20713;-94
2023/08/28 15:20:34;;;;;;;2.75;1.60;;;14.70;99.90;;;;;;5050024;28;20210;-90
2023/08/28 15:23:01;;;;;;;1.52;1.42;;;14.70;99.90;;;;;;5031560;28;20221;-88
2023/08/28 15:25:30;;;;;;;2.40;1.50;;;14.70;99.90;;;;;;5023579;28;20217;-90
2023/08/28 15:27:58;;;;;;;1.88;1.50;;;14.60;99.90;;;;;;5013806;28;20613;-88
2023/08/28 15:30:25;;;;;;;1.27;1.17;;;14.70;99.90;;;;;;5036122;28;20198;-87
2023/08/28 15:32:52;;;;;;;1.38;1.10;;;14.60;99.90;;;;;;5011345;28;20252;-87
2023/08/28 15:35:19;;;;;;;1.48;1.30;;;14.80;99.90;;;;;;5049943;28;20260;-88
2023/08/28 15:40:27;;;;;;;1.25;1.10;;;14.80;99.90;;;;;;5045667;28;20205;-88
2023/08/28 15:42:56;;;;;;;1.85;1.20;;;14.80;99.90;;;;;;5020603;28;20202;-88
2023/08/28 15:45:51;;;;;;;1.30;1.20;;;14.80;99.90;;;;;;5034940;28;20562;-87
2023/08/28 15:48:19;;;;;;;1.20;1.00;;;14.90;99.90;;;;;;5035712;28;20206;-92
2023/08/28 15:50:49;;;;;;;3.17;1.20;;;14.90;99.90;;;;;;5054071;28;20285;-89
2023/08/28 15:53:15;;;;;;;3.53;1.20;;;15.00;99.90;;;;;;5054286;28;20209;-88
2023/08/28 15:55:42;;;;;;;2.63;1.52;;;15.00;99.90;;;;;;5053861;28;20305;-89
2023/08/28 15:58:11;;;;;;;1.50;1.40;;;15.00;99.90;;;;;;5037125;28;20518;-89
2023/08/28 16:00:41;;;;;;;1.50;1.40;;;14.90;99.90;;;;;;5037045;28;20193;-88
2023/08/28 16:03:08;;;;;;;2.53;1.27;;;14.90;99.90;;;;;;5053638;28;20194;-89
2023/08/28 16:05:34;;;;;;;1.92;1.48;;;14.80;99.90;;;;;;5052558;28;20205;-88
2023/08/28 16:08:02;;;;;;;2.45;1.50;;;14.80;99.90;;;;;;5051278;28;20202;-87
2023/08/28 16:10:29;;;;;;;1.10;1.00;;;14.80;99.90;;;;;;5049841;28;20206;-89
2023/08/28 16:12:56;;;;;;;0.95;0.90;;;14.80;99.90;;;;;;5035277;28;20202;-89
2023/08/28 16:15:26;;;;;;;1.52;1.30;;;14.90;99.90;;;;;;5051287;28;20220;-88
2023/08/28 16:17:55;;;;;;;2.03;1.33;;;14.70;99.90;;;;;;5026188;28;20232;-88
2023/08/28 16:20:22;;;;;;;3.35;3.05;;;14.70;99.90;;;;;;5050846;28;20296;-88
2023/08/28 16:22:49;;;;;;;1.70;1.60;;;14.60;99.90;;;;;;5036635;28;20240;-89
2023/08/28 16:25:16;;;;;;;2.20;1.95;;;14.50;99.90;;;;;;5035370;28;20224;-88
2023/08/28 16:27:44;;;;;;;2.20;2.00;;;14.50;99.90;;;;;;5037391;28;20205;-87
2023/08/28 16:33:55;;;;;;;2.55;2.35;;;14.50;99.90;;;;;;5053449;28;20196;-88
2023/08/28 16:39:45;;;;;;;2.75;2.20;;;14.60;99.90;;;;;;5054821;28;20177;-89
2023/08/28 16:49:39;;;;;;;3.10;2.80;;;14.40;99.90;;;;;;5053654;28;20549;-84
2023/08/28 17:02:56;;;;;;;2.75;2.50;;;14.40;99.90;;;;;;5933784;22;20233;-87
2023/08/28 17:05:25;;;;;;;3.35;2.72;;;14.50;99.90;;;;;;5033039;28;20205;-85
2023/08/28 17:13:54;;;;;;;3.42;3.13;;;14.30;99.90;;;;;;5034060;28;20643;-86
2023/08/28 17:20:24;;;;;;;3.42;3.13;;;14.00;99.90;;;;;;5033584;28;20213;-84
2023/08/28 17:23:10;;;;;;;5.85;3.70;;;13.80;99.90;;;;;;5033714;28;20191;-88
2023/08/28 17:25:39;;;;;;;5.32;4.30;;;13.80;99.90;;;;;;5033754;28;20230;-87
2023/08/28 17:28:09;;;;;;;4.30;3.90;;;13.90;99.90;;;;;;5004515;28;20187;-86
2023/08/28 17:41:18;;;;;;;7.45;4.47;;;13.70;99.90;;;;;;4934610;29;20182;-88
2023/08/28 17:43:44;;;;;;;4.72;4.32;;;13.80;99.90;;;;;;4951356;29;20202;-87
2023/08/28 17:46:14;;;;;;;6.28;4.57;;;13.70;99.90;;;;;;4938184;29;20202;-86
2023/08/28 18:24:51;;;;;;;6.07;3.78;;;13.70;99.90;;;;;;5036966;28;20574;-84
2023/08/28 18:37:56;;;;;;;5.57;4.57;;;13.60;99.90;;;;;;5051986;28;20194;-82
2023/08/28 19:28:20;;;;;;;3.92;3.28;;;13.60;99.90;;;;;;5358954;23;20690;-85
2023/08/28 19:31:08;;;;;;;3.50;3.20;;;13.50;99.90;;;;;;5035956;28;20191;-86
2023/08/28 20:23:08;;;;;;;2.63;2.38;;;12.90;99.90;;;;;;5054970;28;20615;-88
